Página principal
METAR-TAF:

METAR-TAF

Aeroportos :

Longyearbyen, Noruega

latitude: 78-15N, longitude: 015-28E, altura: 2 m

Observação actual do tempo

O boletim foi feito há 12 minutos, às 19:50 UTC
Vento 10 kt de este, variando entre es-nordeste e sudeste
Temperatura -3°C
Humidade 68%
Pressão 996 hPa
Visibilidade 10 km ou mais
Poucas nuvensa uma altura de 3200 ft
Nuvens fragmentadasa uma altura de 4000 ft

METAR: ENSB 121950Z 09010KT 060V130 9999 FEW032 BKN040 M03/M08 Q0996 RMK WIND 1400FT 08011KT

Hora: 21:02 (20:02 UTC)

Previsão

Previsão válida de 12 às 18 UTC a 13 às 18 UTC
Vento 12 kt de este
Visibilidade 10 km ou mais
Nuvens dispersasa uma altura de 2500 ft
Nuvens fragmentadasa uma altura de 3500 ft

TAF: ENSB 1218/1318 10012KT 9999 SCT025 BKN035

Observações e previsões do tempo de mais de 4000 aeroportos (mensagens METAR e TAF).

As estações disponíveis são os pontos amarelos e vermelhos sobre o mapa.

Mova o rato sobre o mapa para ver o nome da estação.

Depois clique no ponto para visualizar as observações e previsões meteorológicas.

Para alterar o mapa : clique nos botões verdes com uma cruz preta para aumentar o zoom; no botão verde com uma pitada de zoom; ou nas setas verdes para mapas adjacentes.


METAR-TAF: